createdAt,value
2019-02-17T00:00:01.864Z,777.46
2019-02-17T00:00:06.183Z,777.52
2019-02-17T00:00:10.473Z,777.52
2019-02-17T00:00:14.584Z,777.5
2019-02-17T00:00:18.876Z,777.54
2019-02-17T00:00:23.171Z,777.53
2019-02-17T00:00:27.474Z,777.55
2019-02-17T00:00:31.822Z,777.54
2019-02-17T00:00:36.190Z,777.5
2019-02-17T00:00:40.481Z,777.51
2019-02-17T00:00:44.774Z,777.56
2019-02-17T00:00:49.073Z,777.54
2019-02-17T00:00:53.276Z,777.56
2019-02-17T00:00:57.572Z,777.53
2019-02-17T00:01:02.002Z,777.55
2019-02-17T00:01:06.297Z,777.56
2019-02-17T00:01:10.497Z,777.58
2019-02-17T00:01:14.784Z,777.55
2019-02-17T00:01:19.088Z,777.59
2019-02-17T00:01:23.290Z,777.59
2019-02-17T00:01:27.587Z,777.56
2019-02-17T00:01:31.888Z,777.58
2019-02-17T00:01:36.082Z,777.58
2019-02-17T00:01:40.286Z,777.59
2019-02-17T00:01:44.588Z,777.61
2019-02-17T00:01:48.886Z,777.58
2019-02-17T00:01:53.180Z,777.58
2019-02-17T00:01:57.723Z,777.59
2019-02-17T00:02:02.255Z,777.57
2019-02-17T00:02:06.562Z,777.59
2019-02-17T00:02:10.660Z,777.6
2019-02-17T00:02:14.959Z,777.62
2019-02-17T00:02:19.254Z,777.64
2019-02-17T00:02:23.566Z,777.63
2019-02-17T00:02:27.867Z,777.65
2019-02-17T00:02:32.156Z,777.64
2019-02-17T00:02:36.451Z,777.58
2019-02-17T00:02:40.651Z,777.59
2019-02-17T00:02:44.950Z,777.61
2019-02-17T00:02:49.290Z,777.61
2019-02-17T00:02:53.582Z,777.6
2019-02-17T00:02:57.880Z,777.62
2019-02-17T00:03:02.174Z,777.64
2019-02-17T00:03:06.482Z,777.65
2019-02-17T00:03:10.773Z,777.69
2019-02-17T00:03:15.061Z,777.68
2019-02-17T00:03:19.352Z,777.64
2019-02-17T00:03:23.648Z,777.65
2019-02-17T00:03:27.854Z,777.64
2019-02-17T00:03:32.219Z,777.62
2019-02-17T00:03:36.519Z,777.63
2019-02-17T00:03:40.825Z,777.68
2019-02-17T00:03:45.129Z,777.65
2019-02-17T00:03:49.425Z,777.69
2019-02-17T00:03:53.715Z,777.65
2019-02-17T00:03:57.907Z,777.68
2019-02-17T00:04:02.262Z,777.71
2019-02-17T00:04:06.554Z,777.75
2019-02-17T00:04:10.922Z,777.7
2019-02-17T00:04:15.017Z,777.7
2019-02-17T00:04:19.307Z,777.7
2019-02-17T00:04:23.609Z,777.7
2019-02-17T00:04:27.902Z,777.71
2019-02-17T00:04:32.190Z,777.69
2019-02-17T00:04:36.378Z,777.7
2019-02-17T00:04:40.666Z,777.73
2019-02-17T00:04:44.891Z,777.72
2019-02-17T00:04:49.187Z,777.74
2019-02-17T00:04:53.484Z,777.73
2019-02-17T00:04:57.694Z,777.73
2019-02-17T00:05:01.983Z,777.73
2019-02-17T00:05:06.274Z,777.73
2019-02-17T00:05:10.392Z,777.72
2019-02-17T00:05:14.637Z,777.74
2019-02-17T00:05:18.998Z,777.76
2019-02-17T00:05:23.288Z,777.74
2019-02-17T00:05:27.583Z,777.73
2019-02-17T00:05:31.782Z,777.74
2019-02-17T00:05:36.077Z,777.72
2019-02-17T00:05:40.372Z,777.77
2019-02-17T00:05:44.674Z,777.71
2019-02-17T00:05:48.884Z,777.73
2019-02-17T00:05:53.178Z,777.77
2019-02-17T00:05:57.382Z,777.75
2019-02-17T00:06:01.669Z,777.77
2019-02-17T00:06:05.875Z,777.76
2019-02-17T00:06:10.069Z,777.76
2019-02-17T00:06:14.407Z,777.77
2019-02-17T00:06:18.707Z,777.75
2019-02-17T00:06:23.004Z,777.8
2019-02-17T00:06:27.298Z,777.79
2019-02-17T00:06:31.593Z,777.76
2019-02-17T00:06:35.881Z,777.76
2019-02-17T00:06:40.081Z,777.75
2019-02-17T00:06:44.392Z,777.77
2019-02-17T00:06:48.590Z,777.75
2019-02-17T00:06:52.811Z,777.76
2019-02-17T00:06:57.114Z,777.78
2019-02-17T00:07:01.402Z,777.78
2019-02-17T00:07:05.703Z,777.78
2019-02-17T00:07:09.916Z,777.78
2019-02-17T00:07:14.215Z,777.75
2019-02-17T00:07:18.451Z,777.76
2019-02-17T00:07:22.656Z,777.75
2019-02-17T00:07:26.790Z,777.76
2019-02-17T00:07:31.000Z,777.77
2019-02-17T00:07:35.296Z,777.76
2019-02-17T00:07:39.602Z,777.79
2019-02-17T00:07:44.140Z,777.79
2019-02-17T00:07:48.488Z,777.77
2019-02-17T00:07:52.797Z,777.78
2019-02-17T00:07:57.343Z,777.79
2019-02-17T00:08:01.634Z,777.78
2019-02-17T00:08:06.005Z,777.74
2019-02-17T00:08:10.216Z,777.77
2019-02-17T00:08:14.549Z,777.79
2019-02-17T00:08:18.757Z,777.75
2019-02-17T00:08:23.054Z,777.78
2019-02-17T00:08:27.367Z,777.76
2019-02-17T00:08:31.574Z,777.78
2019-02-17T00:08:35.892Z,777.77
2019-02-17T00:08:40.179Z,777.74
2019-02-17T00:08:44.509Z,777.76
2019-02-17T00:08:48.807Z,777.75
2019-02-17T00:08:53.104Z,777.77
2019-02-17T00:08:57.399Z,777.81
2019-02-17T00:09:01.683Z,777.79
2019-02-17T00:09:05.975Z,777.81
2019-02-17T00:09:10.174Z,777.79
2019-02-17T00:09:14.468Z,777.81
2019-02-17T00:09:18.774Z,777.79
2019-02-17T00:09:23.058Z,777.79
2019-02-17T00:09:27.267Z,777.78
2019-02-17T00:09:31.563Z,777.78
2019-02-17T00:09:35.852Z,777.81
2019-02-17T00:09:40.151Z,777.79
2019-02-17T00:09:44.443Z,777.79
2019-02-17T00:09:48.548Z,777.78
2019-02-17T00:09:52.746Z,777.82
2019-02-17T00:09:57.035Z,777.79
2019-02-17T00:10:01.347Z,777.75
2019-02-17T00:10:05.633Z,777.76
2019-02-17T00:10:09.918Z,777.78
2019-02-17T00:10:14.213Z,777.77
2019-02-17T00:10:18.502Z,777.75
2019-02-17T00:10:22.709Z,777.75
2019-02-17T00:10:26.933Z,777.78
2019-02-17T00:10:31.227Z,777.75
2019-02-17T00:10:35.322Z,777.76
2019-02-17T00:10:39.524Z,777.77
2019-02-17T00:10:43.734Z,777.76
2019-02-17T00:10:48.094Z,777.76
2019-02-17T00:10:52.409Z,777.75
2019-02-17T00:10:56.709Z,777.75
2019-02-17T00:11:00.995Z,777.77
2019-02-17T00:11:05.197Z,777.78
2019-02-17T00:11:09.494Z,777.78
2019-02-17T00:11:13.785Z,777.76
2019-02-17T00:11:18.078Z,777.77
2019-02-17T00:11:22.373Z,777.75
2019-02-17T00:11:26.591Z,777.78
2019-02-17T00:11:30.909Z,777.78
2019-02-17T00:11:35.199Z,777.76
2019-02-17T00:11:39.489Z,777.71
2019-02-17T00:11:43.679Z,777.7
2019-02-17T00:11:47.878Z,777.72
2019-02-17T00:11:52.193Z,777.7
2019-02-17T00:11:56.479Z,777.71
2019-02-17T00:12:00.767Z,777.77
2019-02-17T00:12:05.066Z,777.75
2019-02-17T00:12:09.355Z,777.74
2019-02-17T00:12:13.655Z,777.73
2019-02-17T00:12:17.863Z,777.73
2019-02-17T00:12:22.160Z,777.7
2019-02-17T00:12:26.443Z,777.73
2019-02-17T00:12:30.641Z,777.74
2019-02-17T00:12:34.949Z,777.75
2019-02-17T00:12:39.238Z,777.71
2019-02-17T00:12:43.524Z,777.75
2019-02-17T00:12:47.840Z,777.74
2019-02-17T00:12:52.131Z,777.74
2019-02-17T00:12:56.418Z,777.74
2019-02-17T00:13:00.734Z,777.73
2019-02-17T00:13:05.033Z,777.76
2019-02-17T00:13:09.242Z,777.67
2019-02-17T00:13:13.561Z,777.72
2019-02-17T00:13:17.796Z,777.71
2019-02-17T00:13:22.096Z,777.71
2019-02-17T00:13:26.472Z,777.71
2019-02-17T00:13:30.978Z,777.73
2019-02-17T00:13:35.245Z,777.71
2019-02-17T00:13:39.471Z,777.71
2019-02-17T00:13:43.699Z,777.68
2019-02-17T00:13:47.921Z,777.69
2019-02-17T00:13:52.249Z,777.73
2019-02-17T00:13:56.641Z,777.7
2019-02-17T00:14:00.938Z,777.71
2019-02-17T00:14:05.233Z,777.68
2019-02-17T00:14:09.541Z,777.72
2019-02-17T00:14:13.856Z,777.66
2019-02-17T00:14:18.167Z,777.68
2019-02-17T00:14:24.738Z,777.68
2019-02-17T00:14:28.933Z,777.68
2019-02-17T00:14:33.133Z,777.7
2019-02-17T00:14:37.361Z,777.69
2019-02-17T00:14:41.695Z,777.7
2019-02-17T00:14:45.987Z,777.7
2019-02-17T00:14:50.183Z,777.68
2019-02-17T00:14:54.196Z,777.66
2019-02-17T00:14:58.396Z,777.66
2019-02-17T00:15:02.795Z,777.68
2019-02-17T00:15:07.250Z,777.67
2019-02-17T00:15:11.542Z,777.66
2019-02-17T00:15:15.842Z,777.7
2019-02-17T00:15:20.148Z,777.67
2019-02-17T00:15:24.444Z,777.69
2019-02-17T00:15:28.889Z,777.63
2019-02-17T00:15:33.025Z,777.67
2019-02-17T00:15:37.318Z,777.6
2019-02-17T00:15:41.612Z,777.64
2019-02-17T00:15:46.328Z,777.64
2019-02-17T00:15:50.734Z,777.63
2019-02-17T00:15:55.023Z,777.64
2019-02-17T00:15:59.400Z,777.66
2019-02-17T00:16:03.702Z,777.64
2019-02-17T00:16:08.004Z,777.59
2019-02-17T00:16:12.308Z,777.62
2019-02-17T00:16:16.604Z,777.62
2019-02-17T00:16:20.799Z,777.63
2019-02-17T00:16:25.004Z,777.65
2019-02-17T00:16:29.205Z,777.66
2019-02-17T00:16:33.499Z,777.62
2019-02-17T00:16:37.805Z,777.64
2019-02-17T00:16:42.114Z,777.63
2019-02-17T00:16:46.543Z,777.64
2019-02-17T00:16:50.782Z,777.63
2019-02-17T00:16:54.994Z,777.62
2019-02-17T00:16:59.293Z,777.6
2019-02-17T00:17:03.497Z,777.62
2019-02-17T00:17:07.739Z,777.61
2019-02-17T00:17:12.103Z,777.61
2019-02-17T00:17:16.422Z,777.6
2019-02-17T00:17:20.714Z,777.62
2019-02-17T00:17:25.013Z,777.61
2019-02-17T00:17:29.324Z,777.59
2019-02-17T00:17:34.075Z,777.59
2019-02-17T00:17:38.374Z,777.56
2019-02-17T00:17:42.618Z,777.59
2019-02-17T00:17:46.955Z,777.54
2019-02-17T00:17:51.271Z,777.57
2019-02-17T00:17:55.600Z,777.57
2019-02-17T00:17:59.924Z,777.54
2019-02-17T00:18:04.243Z,777.58
2019-02-17T00:18:08.574Z,777.6
2019-02-17T00:18:12.896Z,777.56
2019-02-17T00:18:17.236Z,777.57
2019-02-17T00:18:21.538Z,777.59
2019-02-17T00:18:25.777Z,777.58
2019-02-17T00:18:29.999Z,777.56
2019-02-17T00:18:34.316Z,777.57
2019-02-17T00:18:38.529Z,777.58
2019-02-17T00:18:42.827Z,777.52
2019-02-17T00:18:47.039Z,777.52
2019-02-17T00:18:51.356Z,777.55
2019-02-17T00:18:55.561Z,777.58
2019-02-17T00:18:59.830Z,777.55
2019-02-17T00:19:04.176Z,777.58
2019-02-17T00:19:08.284Z,777.57
2019-02-17T00:19:12.709Z,777.55
2019-02-17T00:19:17.019Z,777.58
2019-02-17T00:19:21.136Z,777.56
2019-02-17T00:19:25.385Z,777.58
2019-02-17T00:19:29.596Z,777.55
2019-02-17T00:19:33.721Z,777.55
2019-02-17T00:19:38.333Z,777.53
2019-02-17T00:19:42.860Z,777.47
2019-02-17T00:19:47.080Z,777.51
2019-02-17T00:19:51.486Z,777.5
2019-02-17T00:19:55.824Z,777.47
2019-02-17T00:20:00.214Z,777.48
2019-02-17T00:20:04.432Z,777.54
2019-02-17T00:20:11.109Z,777.51
2019-02-17T00:20:15.132Z,777.53
2019-02-17T00:20:19.297Z,777.53
2019-02-17T00:20:23.661Z,777.54
2019-02-17T00:20:27.809Z,777.52
2019-02-17T00:20:32.114Z,777.5
2019-02-17T00:20:36.431Z,777.51
2019-02-17T00:20:40.729Z,777.49
2019-02-17T00:20:45.023Z,777.49
2019-02-17T00:20:49.328Z,777.5
2019-02-17T00:20:53.646Z,777.49
2019-02-17T00:20:57.965Z,777.51
2019-02-17T00:21:02.170Z,777.5
2019-02-17T00:21:06.530Z,777.45
2019-02-17T00:21:10.831Z,777.49
2019-02-17T00:21:15.180Z,777.47
2019-02-17T00:21:19.485Z,777.45
2019-02-17T00:21:23.607Z,777.46
2019-02-17T00:21:27.930Z,777.47
2019-02-17T00:21:32.078Z,777.45
2019-02-17T00:21:36.197Z,777.48
2019-02-17T00:21:40.561Z,777.48
2019-02-17T00:21:44.764Z,777.42
2019-02-17T00:21:49.090Z,777.44
2019-02-17T00:21:53.391Z,777.47
2019-02-17T00:21:57.939Z,777.46
2019-02-17T00:22:02.173Z,777.47
2019-02-17T00:22:06.286Z,777.48
2019-02-17T00:22:10.489Z,777.45
2019-02-17T00:22:14.788Z,777.51
2019-02-17T00:22:19.015Z,777.44
2019-02-17T00:22:23.128Z,777.48
2019-02-17T00:22:27.254Z,777.46
2019-02-17T00:22:31.465Z,777.42
2019-02-17T00:22:35.837Z,777.43
2019-02-17T00:22:40.131Z,777.45
2019-02-17T00:22:44.437Z,777.4
2019-02-17T00:22:48.561Z,777.42
2019-02-17T00:22:52.785Z,777.46
2019-02-17T00:22:56.918Z,777.39
2019-02-17T00:23:01.025Z,777.44
2019-02-17T00:23:05.282Z,777.43
2019-02-17T00:23:09.436Z,777.43
2019-02-17T00:23:13.757Z,777.4
2019-02-17T00:23:18.057Z,777.39
2019-02-17T00:23:22.260Z,777.4
2019-02-17T00:23:26.377Z,777.41
2019-02-17T00:23:30.706Z,777.44
2019-02-17T00:23:34.912Z,777.4
2019-02-17T00:23:39.234Z,777.45
2019-02-17T00:23:43.535Z,777.42
2019-02-17T00:23:47.870Z,777.42
2019-02-17T00:23:52.102Z,777.42
2019-02-17T00:23:56.632Z,777.39
2019-02-17T00:24:00.963Z,777.39
2019-02-17T00:24:05.270Z,777.42
2019-02-17T00:24:09.494Z,777.42
2019-02-17T00:24:13.793Z,777.41
2019-02-17T00:24:18.101Z,777.42
2019-02-17T00:24:22.253Z,777.42
2019-02-17T00:24:26.373Z,777.41
2019-02-17T00:24:30.572Z,777.45
2019-02-17T00:24:34.855Z,777.41
2019-02-17T00:24:39.183Z,777.41
2019-02-17T00:24:43.567Z,777.41
2019-02-17T00:24:47.689Z,777.41
2019-02-17T00:24:51.901Z,777.39
2019-02-17T00:24:56.037Z,777.4
2019-02-17T00:25:00.315Z,777.37
2019-02-17T00:25:04.674Z,777.41
2019-02-17T00:25:08.966Z,777.35
2019-02-17T00:25:13.171Z,777.34
2019-02-17T00:25:17.511Z,777.37
2019-02-17T00:25:23.984Z,777.35
2019-02-17T00:25:28.283Z,777.35
2019-02-17T00:25:32.632Z,777.37
2019-02-17T00:25:36.826Z,777.39
2019-02-17T00:25:41.026Z,777.37
2019-02-17T00:25:45.322Z,777.38
2019-02-17T00:25:49.616Z,777.38
2019-02-17T00:25:53.903Z,777.37
2019-02-17T00:25:58.094Z,777.39
2019-02-17T00:26:02.392Z,777.38
2019-02-17T00:26:06.697Z,777.4
2019-02-17T00:26:10.984Z,777.39
2019-02-17T00:26:15.303Z,777.36
2019-02-17T00:26:19.601Z,777.37
2019-02-17T00:26:23.892Z,777.38
2019-02-17T00:26:28.084Z,777.38
2019-02-17T00:26:32.289Z,777.38
2019-02-17T00:26:36.385Z,777.36
2019-02-17T00:26:40.677Z,777.36
2019-02-17T00:26:44.967Z,777.34
2019-02-17T00:26:49.165Z,777.35
2019-02-17T00:26:53.271Z,777.37
2019-02-17T00:26:57.366Z,777.4
2019-02-17T00:27:01.671Z,777.35
2019-02-17T00:27:05.966Z,777.36
2019-02-17T00:27:10.259Z,777.35
2019-02-17T00:27:14.610Z,777.35
2019-02-17T00:27:18.812Z,777.37
2019-02-17T00:27:23.109Z,777.34
2019-02-17T00:27:27.300Z,777.33
2019-02-17T00:27:31.602Z,777.35
2019-02-17T00:27:35.794Z,777.35
2019-02-17T00:27:40.091Z,777.35
2019-02-17T00:27:44.393Z,777.37
2019-02-17T00:27:48.694Z,777.37
2019-02-17T00:27:52.789Z,777.32
2019-02-17T00:27:56.982Z,777.28
2019-02-17T00:28:01.186Z,777.33
2019-02-17T00:28:05.488Z,777.3
2019-02-17T00:28:09.690Z,777.38
2019-02-17T00:28:13.994Z,777.36
2019-02-17T00:28:18.237Z,777.39
2019-02-17T00:28:22.548Z,777.34
2019-02-17T00:28:26.855Z,777.37
2019-02-17T00:28:31.155Z,777.34
2019-02-17T00:28:35.449Z,777.37
2019-02-17T00:28:39.645Z,777.35
2019-02-17T00:28:43.934Z,777.36
2019-02-17T00:28:48.135Z,777.38
2019-02-17T00:29:02.888Z,777.37
2019-02-17T00:29:07.186Z,777.34
2019-02-17T00:29:11.478Z,777.36
2019-02-17T00:29:15.693Z,777.36
2019-02-17T00:29:19.902Z,777.37
2019-02-17T00:29:24.203Z,777.38
2019-02-17T00:29:28.420Z,777.29
2019-02-17T00:29:32.710Z,777.34
2019-02-17T00:29:37.002Z,777.31
2019-02-17T00:29:41.301Z,777.33
2019-02-17T00:29:45.606Z,777.35
2019-02-17T00:29:49.926Z,777.32
2019-02-17T00:29:54.131Z,777.4
2019-02-17T00:29:58.241Z,777.38
2019-02-17T00:30:02.691Z,777.36
2019-02-17T00:30:07.068Z,777.34
2019-02-17T00:30:11.289Z,777.36
2019-02-17T00:30:15.588Z,777.35
2019-02-17T00:30:19.783Z,777.37
2019-02-17T00:30:24.087Z,777.4
2019-02-17T00:30:28.392Z,777.38
2019-02-17T00:30:32.685Z,777.37
2019-02-17T00:30:36.992Z,777.39
2019-02-17T00:30:41.105Z,777.38
2019-02-17T00:30:45.427Z,777.38
2019-02-17T00:30:49.734Z,777.35
2019-02-17T00:30:53.959Z,777.39
2019-02-17T00:30:58.162Z,777.38
2019-02-17T00:31:02.259Z,777.39
2019-02-17T00:31:06.436Z,777.38
2019-02-17T00:31:10.732Z,777.42
2019-02-17T00:31:15.025Z,777.37
2019-02-17T00:31:19.314Z,777.4
2019-02-17T00:31:23.526Z,777.43
2019-02-17T00:31:27.780Z,777.43
2019-02-17T00:31:32.000Z,777.41
2019-02-17T00:31:36.354Z,777.43
2019-02-17T00:31:40.646Z,777.44
2019-02-17T00:31:44.750Z,777.43
2019-02-17T00:31:48.947Z,777.47
2019-02-17T00:31:53.237Z,777.45
2019-02-17T00:31:57.429Z,777.44
2019-02-17T00:32:01.637Z,777.47
2019-02-17T00:32:05.931Z,777.46
2019-02-17T00:32:10.229Z,777.45
2019-02-17T00:32:14.432Z,777.45
2019-02-17T00:32:18.729Z,777.42
2019-02-17T00:32:22.936Z,777.42
2019-02-17T00:32:27.229Z,777.43
2019-02-17T00:32:31.529Z,777.48
2019-02-17T00:32:35.828Z,777.44
2019-02-17T00:32:40.142Z,777.46
2019-02-17T00:32:44.437Z,777.46
2019-02-17T00:32:48.735Z,777.47
2019-02-17T00:32:52.933Z,777.47
2019-02-17T00:32:57.126Z,777.46
2019-02-17T00:33:01.420Z,777.49
2019-02-17T00:33:05.720Z,777.49
2019-02-17T00:33:09.934Z,777.47
2019-02-17T00:33:14.133Z,777.46
2019-02-17T00:33:18.261Z,777.45
2019-02-17T00:33:22.562Z,777.43
2019-02-17T00:33:26.868Z,777.46
2019-02-17T00:33:31.073Z,777.42
2019-02-17T00:33:35.410Z,777.43
2019-02-17T00:33:39.620Z,777.45
2019-02-17T00:33:43.817Z,777.45
2019-02-17T00:33:48.113Z,777.42
2019-02-17T00:33:52.407Z,777.46
2019-02-17T00:33:56.703Z,777.46
2019-02-17T00:34:00.990Z,777.46
2019-02-17T00:34:05.288Z,777.49
2019-02-17T00:34:09.604Z,777.5
2019-02-17T00:34:16.015Z,777.5
2019-02-17T00:34:20.221Z,777.5
2019-02-17T00:34:24.524Z,777.5
2019-02-17T00:34:28.767Z,777.51
2019-02-17T00:34:32.881Z,777.5
2019-02-17T00:34:37.149Z,777.5
2019-02-17T00:34:41.495Z,777.48
2019-02-17T00:34:45.789Z,777.49
2019-02-17T00:34:50.077Z,777.52
2019-02-17T00:34:54.392Z,777.47
2019-02-17T00:34:58.699Z,777.52
2019-02-17T00:35:03.179Z,777.49
2019-02-17T00:35:07.394Z,777.51
2019-02-17T00:35:11.519Z,777.46
2019-02-17T00:35:15.724Z,777.51
2019-02-17T00:35:20.020Z,777.53
2019-02-17T00:35:24.312Z,777.51
2019-02-17T00:35:28.634Z,777.56
2019-02-17T00:35:32.753Z,777.52
2019-02-17T00:35:36.963Z,777.51
2019-02-17T00:35:41.193Z,777.5
2019-02-17T00:35:45.398Z,777.46
2019-02-17T00:35:49.705Z,777.46
2019-02-17T00:35:54.016Z,777.43
2019-02-17T00:35:58.215Z,777.48
2019-02-17T00:36:02.510Z,777.5
2019-02-17T00:36:06.711Z,777.47
2019-02-17T00:36:11.002Z,777.46
2019-02-17T00:36:15.200Z,777.48
2019-02-17T00:36:19.495Z,777.5
2019-02-17T00:36:23.781Z,777.53
2019-02-17T00:36:28.072Z,777.5
2019-02-17T00:36:32.362Z,777.53
2019-02-17T00:36:36.578Z,777.55
2019-02-17T00:36:40.894Z,777.55
2019-02-17T00:36:45.246Z,777.49
2019-02-17T00:36:49.449Z,777.5
2019-02-17T00:36:53.666Z,777.52
2019-02-17T00:36:57.958Z,777.49
2019-02-17T00:37:02.255Z,777.5
2019-02-17T00:37:06.554Z,777.52
2019-02-17T00:37:10.847Z,777.52
2019-02-17T00:37:15.149Z,777.49
2019-02-17T00:37:19.447Z,777.48
2019-02-17T00:37:23.647Z,777.47
2019-02-17T00:37:27.939Z,777.52
2019-02-17T00:37:32.128Z,777.51
2019-02-17T00:37:36.422Z,777.5
2019-02-17T00:37:40.628Z,777.52
2019-02-17T00:37:44.999Z,777.51
2019-02-17T00:37:49.317Z,777.49
2019-02-17T00:37:53.547Z,777.47
2019-02-17T00:37:57.754Z,777.48
2019-02-17T00:38:02.071Z,777.49
2019-02-17T00:38:06.400Z,777.5
2019-02-17T00:38:10.610Z,777.49
2019-02-17T00:38:14.802Z,777.5
2019-02-17T00:38:18.916Z,777.5
2019-02-17T00:38:23.211Z,777.5
2019-02-17T00:38:27.504Z,777.52
2019-02-17T00:38:31.802Z,777.51
2019-02-17T00:38:36.008Z,777.51
2019-02-17T00:38:40.309Z,777.47
2019-02-17T00:38:44.601Z,777.46
2019-02-17T00:38:48.901Z,777.46
2019-02-17T00:38:53.211Z,777.44
2019-02-17T00:38:57.411Z,777.43
2019-02-17T00:39:01.701Z,777.43
2019-02-17T00:39:06.091Z,777.48
2019-02-17T00:39:10.387Z,777.5
2019-02-17T00:39:14.704Z,777.5
2019-02-17T00:39:18.923Z,777.46
2019-02-17T00:39:23.149Z,777.5
2019-02-17T00:39:27.462Z,777.49
2019-02-17T00:39:31.770Z,777.43
2019-02-17T00:39:35.985Z,777.47
2019-02-17T00:39:40.345Z,777.45
2019-02-17T00:39:44.536Z,777.39
2019-02-17T00:39:48.736Z,777.41
2019-02-17T00:39:53.046Z,777.42
2019-02-17T00:39:57.313Z,777.37
2019-02-17T00:40:02.262Z,777.41
2019-02-17T00:40:06.469Z,777.39
2019-02-17T00:40:10.669Z,777.4
2019-02-17T00:40:14.970Z,777.44
2019-02-17T00:40:19.183Z,777.44
2019-02-17T00:40:23.564Z,777.49
2019-02-17T00:40:27.874Z,777.46
2019-02-17T00:40:32.095Z,777.45
2019-02-17T00:40:36.292Z,777.46
2019-02-17T00:40:40.504Z,777.45
2019-02-17T00:40:44.779Z,777.51
2019-02-17T00:40:49.102Z,777.46
2019-02-17T00:40:53.243Z,777.48
2019-02-17T00:40:57.399Z,777.47
2019-02-17T00:41:01.598Z,777.47
2019-02-17T00:41:05.832Z,777.49
2019-02-17T00:41:10.043Z,777.48
2019-02-17T00:41:14.340Z,777.46
2019-02-17T00:41:18.669Z,777.45
2019-02-17T00:41:22.978Z,777.45
2019-02-17T00:41:27.185Z,777.43
2019-02-17T00:41:31.535Z,777.46
2019-02-17T00:41:35.835Z,777.45
2019-02-17T00:41:40.140Z,777.4
2019-02-17T00:41:44.448Z,777.39
2019-02-17T00:41:48.743Z,777.4
2019-02-17T00:41:53.070Z,777.38
2019-02-17T00:41:57.272Z,777.45
2019-02-17T00:42:01.550Z,777.44
2019-02-17T00:42:05.869Z,777.44
2019-02-17T00:42:10.169Z,777.44
2019-02-17T00:42:14.439Z,777.42
2019-02-17T00:42:18.737Z,777.44
2019-02-17T00:42:23.050Z,777.44
2019-02-17T00:42:27.344Z,777.42
2019-02-17T00:42:31.556Z,777.45
2019-02-17T00:42:35.781Z,777.42
2019-02-17T00:42:40.100Z,777.43
2019-02-17T00:42:44.399Z,777.44
2019-02-17T00:42:48.692Z,777.42
2019-02-17T00:42:53.055Z,777.38
2019-02-17T00:42:57.354Z,777.41
2019-02-17T00:43:01.649Z,777.41
2019-02-17T00:43:05.868Z,777.4
2019-02-17T00:43:10.171Z,777.37
2019-02-17T00:43:14.471Z,777.43
2019-02-17T00:43:18.777Z,777.4
2019-02-17T00:43:22.905Z,777.4
2019-02-17T00:43:27.209Z,777.38
2019-02-17T00:43:31.548Z,777.39
2019-02-17T00:43:35.813Z,777.37
2019-02-17T00:43:40.019Z,777.36
2019-02-17T00:43:44.329Z,777.37
2019-02-17T00:43:48.475Z,777.33
2019-02-17T00:43:52.698Z,777.34
2019-02-17T00:43:56.908Z,777.37
2019-02-17T00:44:01.420Z,777.32
2019-02-17T00:44:05.622Z,777.38
2019-02-17T00:44:09.958Z,777.36
2019-02-17T00:44:14.158Z,777.38
2019-02-17T00:44:18.449Z,777.35
2019-02-17T00:44:22.805Z,777.36
2019-02-17T00:44:27.012Z,777.34
2019-02-17T00:44:31.206Z,777.35
2019-02-17T00:44:35.501Z,777.36
2019-02-17T00:44:39.719Z,777.33
2019-02-17T00:44:43.920Z,777.32
2019-02-17T00:44:48.259Z,777.36
2019-02-17T00:44:52.461Z,777.34
2019-02-17T00:44:56.759Z,777.35
2019-02-17T00:45:01.056Z,777.35
2019-02-17T00:45:05.256Z,777.33
2019-02-17T00:45:09.550Z,777.34
2019-02-17T00:45:13.839Z,777.34
2019-02-17T00:45:18.039Z,777.35
2019-02-17T00:45:22.409Z,777.35
2019-02-17T00:45:26.720Z,777.36
2019-02-17T00:45:31.007Z,777.35
2019-02-17T00:45:35.210Z,777.34
2019-02-17T00:45:39.410Z,777.34
2019-02-17T00:45:43.704Z,777.34
2019-02-17T00:45:47.799Z,777.32
2019-02-17T00:45:52.096Z,777.34
2019-02-17T00:45:56.387Z,777.32
2019-02-17T00:46:00.676Z,777.33
2019-02-17T00:46:04.968Z,777.29
2019-02-17T00:46:09.266Z,777.31
2019-02-17T00:46:13.601Z,777.31
2019-02-17T00:46:17.945Z,777.24
2019-02-17T00:46:22.228Z,777.3
2019-02-17T00:46:26.523Z,777.3
2019-02-17T00:46:30.714Z,777.33
2019-02-17T00:46:35.003Z,777.31
2019-02-17T00:46:39.306Z,777.29
2019-02-17T00:46:43.502Z,777.32
2019-02-17T00:46:47.796Z,777.29
2019-02-17T00:46:52.083Z,777.28
2019-02-17T00:46:56.399Z,777.29
2019-02-17T00:47:00.692Z,777.3
2019-02-17T00:47:05.001Z,777.3
2019-02-17T00:47:09.306Z,777.3
2019-02-17T00:47:13.504Z,777.29
2019-02-17T00:47:17.716Z,777.29
2019-02-17T00:47:22.020Z,777.28
2019-02-17T00:47:26.117Z,777.28
2019-02-17T00:47:30.416Z,777.29
2019-02-17T00:47:34.743Z,777.27
2019-02-17T00:47:39.036Z,777.24
2019-02-17T00:47:43.341Z,777.26
2019-02-17T00:47:47.637Z,777.26
2019-02-17T00:47:51.938Z,777.26
2019-02-17T00:47:56.231Z,777.27
2019-02-17T00:48:00.526Z,777.25
2019-02-17T00:48:04.737Z,777.32
2019-02-17T00:48:09.250Z,777.23
2019-02-17T00:48:13.609Z,777.26
2019-02-17T00:48:17.821Z,777.25
2019-02-17T00:48:22.063Z,777.24
2019-02-17T00:48:26.356Z,777.26
2019-02-17T00:48:30.657Z,777.25
2019-02-17T00:48:34.863Z,777.28
2019-02-17T00:48:39.218Z,777.25
2019-02-17T00:48:43.525Z,777.23
2019-02-17T00:48:47.734Z,777.25
2019-02-17T00:48:52.031Z,777.27
2019-02-17T00:48:56.324Z,777.27
2019-02-17T00:49:00.610Z,777.21
2019-02-17T00:49:04.722Z,777.26
2019-02-17T00:49:08.915Z,777.26
2019-02-17T00:49:13.220Z,777.25
2019-02-17T00:49:17.418Z,777.24
2019-02-17T00:49:21.739Z,777.22
2019-02-17T00:49:26.108Z,777.22
2019-02-17T00:49:30.372Z,777.25
2019-02-17T00:49:34.590Z,777.21
2019-02-17T00:49:38.880Z,777.24
2019-02-17T00:49:43.141Z,777.26
2019-02-17T00:49:47.338Z,777.25
2019-02-17T00:49:51.587Z,777.22
2019-02-17T00:49:55.807Z,777.21
2019-02-17T00:50:00.213Z,777.25
2019-02-17T00:50:04.619Z,777.24
2019-02-17T00:50:08.821Z,777.21
2019-02-17T00:50:13.048Z,777.23
2019-02-17T00:50:17.357Z,777.23
2019-02-17T00:50:21.559Z,777.21
2019-02-17T00:50:25.763Z,777.23
2019-02-17T00:50:29.970Z,777.23
2019-02-17T00:50:34.173Z,777.24
2019-02-17T00:50:38.471Z,777.26
2019-02-17T00:50:42.589Z,777.22
2019-02-17T00:50:46.807Z,777.25
2019-02-17T00:50:51.008Z,777.23
2019-02-17T00:50:55.304Z,777.24
2019-02-17T00:50:59.594Z,777.22
2019-02-17T00:51:03.832Z,777.22
2019-02-17T00:51:08.130Z,777.24
2019-02-17T00:51:12.236Z,777.23
2019-02-17T00:51:16.533Z,777.23
2019-02-17T00:51:20.838Z,777.23
2019-02-17T00:51:24.760Z,777.23
2019-02-17T00:51:28.964Z,777.24
2019-02-17T00:51:33.483Z,777.24
2019-02-17T00:51:37.688Z,777.23
2019-02-17T00:51:43.701Z,777.2
2019-02-17T00:51:48.110Z,777.22
2019-02-17T00:51:52.220Z,777.21
2019-02-17T00:51:56.425Z,777.19
2019-02-17T00:52:00.625Z,777.22
2019-02-17T00:52:04.729Z,777.21
2019-02-17T00:52:09.031Z,777.23
2019-02-17T00:52:13.237Z,777.24
2019-02-17T00:52:17.444Z,777.26
2019-02-17T00:52:21.755Z,777.24
2019-02-17T00:52:26.054Z,777.26
2019-02-17T00:52:30.257Z,777.22
2019-02-17T00:52:34.583Z,777.23
2019-02-17T00:52:38.776Z,777.24
2019-02-17T00:52:43.132Z,777.24
2019-02-17T00:52:47.235Z,777.24
2019-02-17T00:52:51.431Z,777.23
2019-02-17T00:52:55.724Z,777.25
2019-02-17T00:52:59.924Z,777.23
2019-02-17T00:53:04.243Z,777.24
2019-02-17T00:53:08.349Z,777.25
2019-02-17T00:53:12.670Z,777.26
2019-02-17T00:53:16.966Z,777.25
2019-02-17T00:53:21.265Z,777.25
2019-02-17T00:53:25.467Z,777.22
2019-02-17T00:53:29.631Z,777.2
2019-02-17T00:53:33.983Z,777.25
2019-02-17T00:53:38.355Z,777.21
2019-02-17T00:53:42.551Z,777.23
2019-02-17T00:53:46.675Z,777.24